createdAt,value
2022-09-28T00:00:00.321Z,0.00
2022-09-28T00:01:00.312Z,0.00
2022-09-28T00:02:00.465Z,0.00
2022-09-28T00:03:00.404Z,0.00
2022-09-28T00:04:00.351Z,0.00
2022-09-28T00:05:00.365Z,0.00
2022-09-28T00:06:00.378Z,0.00
2022-09-28T00:07:00.398Z,0.00
2022-09-28T00:08:00.406Z,0.00
2022-09-28T00:09:00.418Z,0.00
2022-09-28T00:10:00.464Z,0.00
2022-09-28T00:11:00.451Z,0.00
2022-09-28T00:12:00.460Z,0.00
2022-09-28T00:13:00.470Z,0.00
2022-09-28T00:14:00.489Z,0.00
2022-09-28T00:15:00.499Z,0.00
2022-09-28T00:16:00.546Z,0.00
2022-09-28T00:17:00.527Z,0.00
2022-09-28T00:18:00.539Z,0.00
2022-09-28T00:19:00.554Z,0.00
2022-09-28T00:20:00.565Z,0.00
2022-09-28T00:21:00.578Z,0.00
2022-09-28T00:22:00.596Z,0.00
2022-09-28T00:23:00.603Z,0.00
2022-09-28T00:24:00.617Z,0.00
2022-09-28T00:25:00.631Z,0.00
2022-09-28T00:26:00.648Z,0.00
2022-09-28T00:27:00.657Z,0.00
2022-09-28T00:28:00.672Z,0.00
2022-09-28T00:29:00.686Z,0.00
2022-09-28T00:30:00.698Z,0.00
2022-09-28T00:31:00.708Z,0.00
2022-09-28T00:32:00.816Z,0.00
2022-09-28T00:33:00.739Z,0.00
2022-09-28T00:34:00.751Z,0.00
2022-09-28T00:35:00.766Z,0.00
2022-09-28T00:36:00.780Z,0.00
2022-09-28T00:37:00.789Z,0.00
2022-09-28T00:38:00.803Z,0.00
2022-09-28T00:39:00.818Z,0.00
2022-09-28T00:40:00.828Z,0.00
2022-09-28T00:41:00.874Z,0.00
2022-09-28T00:42:00.857Z,0.00
2022-09-28T00:43:00.870Z,0.00
2022-09-28T00:44:00.882Z,0.00
2022-09-28T00:45:00.897Z,0.00
2022-09-28T00:46:00.977Z,0.00
2022-09-28T00:47:00.922Z,0.00
2022-09-28T00:48:00.938Z,0.00
2022-09-28T00:49:00.950Z,0.00
2022-09-28T00:50:00.965Z,0.00
2022-09-28T00:51:00.976Z,0.00
2022-09-28T00:52:00.989Z,0.00
2022-09-28T00:53:01.003Z,0.00
2022-09-28T00:54:01.019Z,0.00
2022-09-28T00:55:01.034Z,0.00
2022-09-28T00:56:01.117Z,0.00
2022-09-28T00:57:01.059Z,0.00
2022-09-28T00:58:01.071Z,0.00
2022-09-28T00:59:01.083Z,0.00
2022-09-28T01:00:01.099Z,0.00
2022-09-28T01:01:01.233Z,0.00
2022-09-28T01:02:01.158Z,0.00
2022-09-28T01:03:01.140Z,0.00
2022-09-28T01:04:01.152Z,0.00
2022-09-28T01:05:01.165Z,0.00
2022-09-28T01:06:01.182Z,0.00
2022-09-28T01:07:01.193Z,0.00
2022-09-28T01:08:01.205Z,0.00
2022-09-28T01:09:01.219Z,0.00
2022-09-28T01:10:01.236Z,0.00
2022-09-28T01:11:01.248Z,0.00
2022-09-28T01:12:01.258Z,0.00
2022-09-28T01:13:01.278Z,0.00
2022-09-28T01:14:01.293Z,0.00
2022-09-28T01:15:01.300Z,0.00
2022-09-28T01:16:01.385Z,0.00
2022-09-28T01:17:01.341Z,0.00
2022-09-28T01:18:01.359Z,0.00
2022-09-28T01:19:01.365Z,0.00
2022-09-28T01:20:01.383Z,0.00
2022-09-28T01:21:01.383Z,0.00
2022-09-28T01:22:01.397Z,0.00
2022-09-28T01:23:01.407Z,0.00
2022-09-28T01:24:01.425Z,0.00
2022-09-28T01:25:01.435Z,0.00
2022-09-28T01:26:01.448Z,0.00
2022-09-28T01:27:01.462Z,0.00
2022-09-28T01:28:01.477Z,0.00
2022-09-28T01:29:01.492Z,0.00
2022-09-28T01:30:01.504Z,0.00
2022-09-28T01:31:01.517Z,0.00
2022-09-28T01:32:01.552Z,0.00
2022-09-28T01:33:01.557Z,0.00
2022-09-28T01:34:01.559Z,0.00
2022-09-28T01:35:01.571Z,0.00
2022-09-28T01:36:01.583Z,0.00
2022-09-28T01:37:01.603Z,0.00
2022-09-28T01:38:01.631Z,0.00
2022-09-28T01:39:01.629Z,0.00
2022-09-28T01:40:01.652Z,0.00
2022-09-28T01:41:01.651Z,0.00
2022-09-28T01:42:01.665Z,0.00
2022-09-28T01:43:01.688Z,0.00
2022-09-28T01:44:01.690Z,0.00
2022-09-28T01:45:01.707Z,0.00
2022-09-28T01:46:01.803Z,0.00
2022-09-28T01:47:01.735Z,0.00
2022-09-28T01:48:01.747Z,0.00
2022-09-28T01:49:01.761Z,0.00
2022-09-28T01:50:01.807Z,0.00
2022-09-28T01:51:01.790Z,0.00
2022-09-28T01:52:01.803Z,0.00
2022-09-28T01:53:01.816Z,0.00
2022-09-28T01:54:01.831Z,0.00
2022-09-28T01:55:01.845Z,0.00
2022-09-28T01:56:01.856Z,0.00
2022-09-28T01:57:01.872Z,0.00
2022-09-28T01:58:01.886Z,0.00
2022-09-28T01:59:01.897Z,0.00
2022-09-28T02:00:01.912Z,0.00
2022-09-28T02:01:01.979Z,0.00
2022-09-28T02:02:02.024Z,0.00
2022-09-28T02:03:01.953Z,0.00
2022-09-28T02:04:01.964Z,0.00
2022-09-28T02:05:01.982Z,0.00
2022-09-28T02:06:01.993Z,0.00
2022-09-28T02:07:02.005Z,0.00
2022-09-28T02:08:02.019Z,0.00
2022-09-28T02:09:02.035Z,0.00
2022-09-28T02:10:02.047Z,0.00
2022-09-28T02:11:02.059Z,0.00
2022-09-28T02:12:02.073Z,0.00
2022-09-28T02:13:02.087Z,0.00
2022-09-28T02:14:02.127Z,0.00
2022-09-28T02:15:02.112Z,0.00
2022-09-28T02:16:02.171Z,0.00
2022-09-28T02:17:02.140Z,0.00
2022-09-28T02:18:02.155Z,0.00
2022-09-28T02:19:02.168Z,0.00
2022-09-28T02:20:02.184Z,0.00
2022-09-28T02:21:02.195Z,0.00
2022-09-28T02:22:02.208Z,0.00
2022-09-28T02:23:02.222Z,0.00
2022-09-28T02:24:02.234Z,0.00
2022-09-28T02:25:02.248Z,0.00
2022-09-28T02:26:02.261Z,0.00
2022-09-28T02:27:02.275Z,0.00
2022-09-28T02:28:02.288Z,0.00
2022-09-28T02:29:02.305Z,0.00
2022-09-28T02:30:02.316Z,0.00
2022-09-28T02:31:02.463Z,0.00
2022-09-28T02:32:02.342Z,0.00
2022-09-28T02:33:02.356Z,0.00
2022-09-28T02:34:02.369Z,0.00
2022-09-28T02:35:02.381Z,0.00
2022-09-28T02:36:02.396Z,0.00
2022-09-28T02:37:02.409Z,0.00
2022-09-28T02:38:02.422Z,0.00
2022-09-28T02:39:02.435Z,0.00
2022-09-28T02:40:02.450Z,0.00
2022-09-28T02:41:02.463Z,0.00
2022-09-28T02:42:02.477Z,0.00
2022-09-28T02:43:02.492Z,0.00
2022-09-28T02:44:02.502Z,0.00
2022-09-28T02:45:02.515Z,0.00
2022-09-28T02:46:02.572Z,0.00
2022-09-28T02:47:02.543Z,0.00
2022-09-28T02:48:02.554Z,0.00
2022-09-28T02:49:20.331Z,0.00
2022-09-28T02:50:02.582Z,0.00
2022-09-28T02:51:02.598Z,0.00
2022-09-28T02:52:02.609Z,0.00
2022-09-28T02:53:02.623Z,0.00
2022-09-28T02:54:02.637Z,0.00
2022-09-28T02:55:02.649Z,0.00
2022-09-28T02:56:02.664Z,0.00
2022-09-28T02:57:02.674Z,0.00
2022-09-28T02:58:02.688Z,0.00
2022-09-28T02:59:02.704Z,0.00
2022-09-28T03:00:02.715Z,0.00
2022-09-28T03:01:02.793Z,0.00
2022-09-28T03:02:02.786Z,0.00
2022-09-28T03:03:02.756Z,0.00
2022-09-28T03:04:02.767Z,0.00
2022-09-28T03:05:02.781Z,0.00
2022-09-28T03:06:02.795Z,0.00
2022-09-28T03:07:02.808Z,0.00
2022-09-28T03:08:02.820Z,0.00
2022-09-28T03:09:02.833Z,0.00
2022-09-28T03:10:02.849Z,0.00
2022-09-28T03:11:02.864Z,0.00
2022-09-28T03:12:02.877Z,0.00
2022-09-28T03:13:02.888Z,0.00
2022-09-28T03:14:02.900Z,0.00
2022-09-28T03:15:02.913Z,0.00
2022-09-28T03:16:02.971Z,0.00
2022-09-28T03:17:02.942Z,0.00
2022-09-28T03:18:02.961Z,0.00
2022-09-28T03:19:02.964Z,0.00
2022-09-28T03:20:02.977Z,0.00
2022-09-28T03:21:02.991Z,0.00
2022-09-28T03:22:03.004Z,0.00
2022-09-28T03:23:26.031Z,0.00
2022-09-28T03:24:03.038Z,0.00
2022-09-28T03:25:03.047Z,0.00
2022-09-28T03:26:03.057Z,0.00
2022-09-28T03:27:03.070Z,0.00
2022-09-28T03:28:03.082Z,0.00
2022-09-28T03:29:03.093Z,0.00
2022-09-28T03:30:03.108Z,0.00
2022-09-28T03:31:03.144Z,0.00
2022-09-28T03:32:03.133Z,0.00
2022-09-28T03:33:03.154Z,0.00
2022-09-28T03:34:03.160Z,0.00
2022-09-28T03:35:03.177Z,0.00
2022-09-28T03:36:03.193Z,0.00
2022-09-28T03:37:03.198Z,0.00
2022-09-28T03:38:03.213Z,0.00
2022-09-28T03:39:03.224Z,0.00
2022-09-28T03:40:03.240Z,0.00
2022-09-28T03:41:03.316Z,0.00
2022-09-28T03:42:03.267Z,0.00
2022-09-28T03:43:03.280Z,0.00
2022-09-28T03:44:03.289Z,0.00
2022-09-28T03:45:03.300Z,0.00
2022-09-28T03:46:03.433Z,0.00
2022-09-28T03:47:03.325Z,0.00
2022-09-28T03:48:03.339Z,0.00
2022-09-28T03:49:03.350Z,0.00
2022-09-28T03:50:03.367Z,0.00
2022-09-28T03:51:03.377Z,0.00
2022-09-28T03:52:03.387Z,0.00
2022-09-28T03:53:03.403Z,0.00
2022-09-28T03:54:03.413Z,0.00
2022-09-28T03:55:03.428Z,0.00
2022-09-28T03:56:03.440Z,0.00
2022-09-28T03:57:03.451Z,0.00
2022-09-28T03:58:03.465Z,0.00
2022-09-28T03:59:03.475Z,0.00
2022-09-28T04:00:03.488Z,0.00
2022-09-28T04:01:03.572Z,0.00
2022-09-28T04:02:03.577Z,0.00
2022-09-28T04:03:03.525Z,0.00
2022-09-28T04:04:03.538Z,0.00
2022-09-28T04:05:03.551Z,0.00
2022-09-28T04:06:03.562Z,0.00
2022-09-28T04:07:03.578Z,0.00
2022-09-28T04:08:03.589Z,0.00
2022-09-28T04:09:03.602Z,0.00
2022-09-28T04:10:03.613Z,0.00
2022-09-28T04:11:03.648Z,0.00
2022-09-28T04:12:04.513Z,0.00
2022-09-28T04:13:03.654Z,0.00
2022-09-28T04:14:03.665Z,0.00
2022-09-28T04:15:03.678Z,0.00
2022-09-28T04:16:03.723Z,0.00
2022-09-28T04:17:03.697Z,0.00
2022-09-28T04:18:03.711Z,0.00
2022-09-28T04:19:03.722Z,0.00
2022-09-28T04:20:03.736Z,0.00
2022-09-28T04:21:03.759Z,0.00
2022-09-28T04:22:03.759Z,0.00
2022-09-28T04:23:03.771Z,0.00
2022-09-28T04:24:03.783Z,0.00
2022-09-28T04:25:03.801Z,0.00
2022-09-28T04:26:03.808Z,0.00
2022-09-28T04:27:03.824Z,0.00
2022-09-28T04:28:03.834Z,0.00
2022-09-28T04:29:06.596Z,0.00
2022-09-28T04:30:03.859Z,0.00
2022-09-28T04:31:03.875Z,4.00
2022-09-28T04:32:03.931Z,4.00
2022-09-28T04:33:03.894Z,0.00
2022-09-28T04:34:03.907Z,0.00
2022-09-28T04:35:03.920Z,4.00
2022-09-28T04:36:03.931Z,4.00
2022-09-28T04:37:03.944Z,4.00
2022-09-28T04:38:03.956Z,4.00
2022-09-28T04:39:03.967Z,8.00
2022-09-28T04:40:03.977Z,8.00
2022-09-28T04:41:03.995Z,8.00
2022-09-28T04:42:04.006Z,12.00
2022-09-28T04:43:04.016Z,12.00
2022-09-28T04:44:04.029Z,12.00
2022-09-28T04:45:04.043Z,20.00
2022-09-28T04:46:04.097Z,24.00
2022-09-28T04:47:05.264Z,28.00
2022-09-28T04:48:04.079Z,32.00
2022-09-28T04:49:04.093Z,40.00
2022-09-28T04:50:04.106Z,48.00
2022-09-28T04:51:04.119Z,56.00
2022-09-28T04:52:04.132Z,64.00
2022-09-28T04:53:04.142Z,76.00
2022-09-28T04:54:04.157Z,84.00
2022-09-28T04:55:04.168Z,96.00
2022-09-28T04:56:04.181Z,112.00
2022-09-28T04:57:04.193Z,124.00
2022-09-28T04:58:04.206Z,136.00
2022-09-28T04:59:04.219Z,148.00
2022-09-28T05:00:04.231Z,156.00
2022-09-28T05:01:04.281Z,164.00
2022-09-28T05:02:04.312Z,168.00
2022-09-28T05:03:04.268Z,168.00
2022-09-28T05:04:04.283Z,172.00
2022-09-28T05:05:04.293Z,176.00
2022-09-28T05:06:04.308Z,180.00
2022-09-28T05:07:04.318Z,188.00
2022-09-28T05:08:04.331Z,192.00
2022-09-28T05:09:04.345Z,204.00
2022-09-28T05:10:04.360Z,220.00
2022-09-28T05:11:04.368Z,240.00
2022-09-28T05:12:04.384Z,260.00
2022-09-28T05:13:04.394Z,280.00
2022-09-28T05:14:04.408Z,300.00
2022-09-28T05:15:04.421Z,324.00
2022-09-28T05:16:05.639Z,344.00
2022-09-28T05:17:04.450Z,360.00
2022-09-28T05:18:04.460Z,380.00
2022-09-28T05:19:04.471Z,416.00
2022-09-28T05:20:04.483Z,460.00
2022-09-28T05:21:04.496Z,492.00
2022-09-28T05:22:04.508Z,504.00
2022-09-28T05:23:04.523Z,500.00
2022-09-28T05:24:04.536Z,512.00
2022-09-28T05:25:04.547Z,540.00
2022-09-28T05:26:04.561Z,572.00
2022-09-28T05:27:04.575Z,600.00
2022-09-28T05:28:04.587Z,616.00
2022-09-28T05:29:04.600Z,604.00
2022-09-28T05:30:04.612Z,580.00
2022-09-28T05:31:04.628Z,552.00
2022-09-28T05:32:04.724Z,548.00
2022-09-28T05:33:04.651Z,560.00
2022-09-28T05:34:04.664Z,572.00
2022-09-28T05:35:04.682Z,580.00
2022-09-28T05:36:04.693Z,600.00
2022-09-28T05:37:04.704Z,644.00
2022-09-28T05:38:04.719Z,696.00
2022-09-28T05:39:04.732Z,764.00
2022-09-28T05:40:04.744Z,836.00
2022-09-28T05:41:06.813Z,908.00
2022-09-28T05:42:04.772Z,1004.00
2022-09-28T05:43:04.782Z,1112.00
2022-09-28T05:44:04.806Z,1216.00
2022-09-28T05:45:04.809Z,1320.00
2022-09-28T05:46:04.884Z,1448.00
2022-09-28T05:47:04.835Z,1600.00
2022-09-28T05:48:04.852Z,1752.00
2022-09-28T05:49:04.863Z,1844.00
2022-09-28T05:50:04.876Z,1868.00
2022-09-28T05:51:04.890Z,1884.00
2022-09-28T05:52:04.903Z,1984.00
2022-09-28T05:53:04.916Z,2148.00
2022-09-28T05:54:06.149Z,2384.00
2022-09-28T05:55:04.942Z,2700.00
2022-09-28T05:56:04.960Z,3168.00
2022-09-28T05:57:04.968Z,3764.00
2022-09-28T05:58:04.990Z,4184.00
2022-09-28T05:59:04.995Z,4504.00
2022-09-28T06:00:05.009Z,4780.00
2022-09-28T06:01:05.115Z,5000.00
2022-09-28T06:02:05.100Z,5256.00
2022-09-28T06:03:08.671Z,5128.00
2022-09-28T06:04:05.067Z,4900.00
2022-09-28T06:05:05.088Z,4696.00
2022-09-28T06:06:05.117Z,4624.00
2022-09-28T06:07:05.109Z,4676.00
2022-09-28T06:08:05.204Z,4688.00
2022-09-28T06:09:05.142Z,4672.00
2022-09-28T06:10:05.165Z,4600.00
2022-09-28T06:11:05.171Z,4364.00
2022-09-28T06:12:05.178Z,4212.00
2022-09-28T06:13:05.189Z,4304.00
2022-09-28T06:14:05.204Z,4536.00
2022-09-28T06:15:05.217Z,4668.00
2022-09-28T06:16:05.234Z,4716.00
2022-09-28T06:17:05.327Z,4704.00
2022-09-28T06:18:05.271Z,4688.00
2022-09-28T06:19:05.276Z,4604.00
2022-09-28T06:20:05.286Z,4564.00
2022-09-28T06:21:05.301Z,4508.00
2022-09-28T06:22:05.317Z,4548.00
2022-09-28T06:23:05.329Z,4736.00
2022-09-28T06:24:05.344Z,4932.00
2022-09-28T06:25:05.359Z,5088.00
2022-09-28T06:26:05.374Z,5104.00
2022-09-28T06:27:05.386Z,5016.00
2022-09-28T06:28:05.401Z,4860.00
2022-09-28T06:29:05.416Z,4728.00
2022-09-28T06:30:05.427Z,4592.00
2022-09-28T06:31:05.498Z,4488.00
2022-09-28T06:32:05.456Z,4264.00
2022-09-28T06:33:05.473Z,4160.00
2022-09-28T06:34:05.487Z,4068.00
2022-09-28T06:35:05.501Z,4076.00
2022-09-28T06:36:05.516Z,4108.00
2022-09-28T06:37:05.529Z,4092.00
2022-09-28T06:38:05.544Z,4008.00
2022-09-28T06:39:05.555Z,4028.00
2022-09-28T06:40:05.570Z,3972.00
2022-09-28T06:41:05.612Z,3872.00
2022-09-28T06:42:05.597Z,3884.00
2022-09-28T06:43:05.610Z,3824.00
2022-09-28T06:44:05.625Z,3788.00
2022-09-28T06:45:05.640Z,3752.00
2022-09-28T06:46:05.711Z,3784.00
2022-09-28T06:47:05.667Z,3728.00
2022-09-28T06:48:05.681Z,3716.00
2022-09-28T06:49:05.699Z,3708.00
2022-09-28T06:50:05.710Z,3708.00
2022-09-28T06:51:05.725Z,3716.00
2022-09-28T06:52:05.736Z,3712.00
2022-09-28T06:53:05.749Z,3700.00
2022-09-28T06:54:05.769Z,3672.00
2022-09-28T06:55:05.780Z,3656.00
2022-09-28T06:56:05.807Z,3652.00
2022-09-28T06:57:05.809Z,3668.00
2022-09-28T06:58:05.820Z,3696.00
2022-09-28T06:59:05.832Z,3728.00
2022-09-28T07:00:05.847Z,3776.00
2022-09-28T07:01:05.934Z,3824.00
2022-09-28T07:02:05.930Z,3896.00
2022-09-28T07:03:05.890Z,3980.00
2022-09-28T07:04:05.904Z,4036.00
2022-09-28T07:05:05.919Z,4072.00
2022-09-28T07:06:05.930Z,4120.00
2022-09-28T07:07:05.943Z,4208.00
2022-09-28T07:08:05.957Z,4284.00
2022-09-28T07:09:18.096Z,4364.00
2022-09-28T07:10:05.985Z,4372.00
2022-09-28T07:11:05.999Z,4348.00
2022-09-28T07:12:06.013Z,4360.00
2022-09-28T07:13:07.410Z,4444.00
2022-09-28T07:14:06.041Z,4552.00
2022-09-28T07:15:06.055Z,4548.00
2022-09-28T07:16:06.068Z,4512.00
2022-09-28T07:17:13.574Z,4536.00
2022-09-28T07:18:06.181Z,4596.00
2022-09-28T07:19:06.109Z,4700.00
2022-09-28T07:20:16.998Z,4836.00
2022-09-28T07:21:06.227Z,4936.00
2022-09-28T07:22:06.152Z,5060.00
2022-09-28T07:23:17.540Z,5224.00
2022-09-28T07:24:06.180Z,5292.00
2022-09-28T07:25:06.193Z,5324.00
2022-09-28T07:26:08.054Z,5472.00
2022-09-28T07:27:06.219Z,5580.00
2022-09-28T07:28:06.236Z,5756.00
2022-09-28T07:29:06.249Z,5916.00
2022-09-28T07:30:06.264Z,6088.00
2022-09-28T07:31:06.346Z,6296.00
2022-09-28T07:32:06.292Z,6444.00
2022-09-28T07:33:06.310Z,6620.00
2022-09-28T07:34:06.319Z,6808.00
2022-09-28T07:35:06.334Z,6940.00
2022-09-28T07:36:06.353Z,7160.00
2022-09-28T07:37:06.365Z,7268.00
2022-09-28T07:38:06.377Z,7444.00
2022-09-28T07:39:06.390Z,7616.00
2022-09-28T07:40:06.406Z,7752.00
2022-09-28T07:41:06.463Z,7868.00
2022-09-28T07:42:06.434Z,7872.00
2022-09-28T07:43:06.448Z,7940.00
2022-09-28T07:44:06.534Z,7976.00
2022-09-28T07:45:06.478Z,8060.00
2022-09-28T07:46:06.627Z,8116.00
2022-09-28T07:47:06.506Z,8180.00
2022-09-28T07:48:06.562Z,8300.00
2022-09-28T07:49:09.778Z,8404.00
2022-09-28T07:50:06.561Z,8520.00
2022-09-28T07:51:06.564Z,8612.00
2022-09-28T07:52:06.579Z,8536.00
2022-09-28T07:53:06.597Z,8680.00
2022-09-28T07:54:06.618Z,8836.00
2022-09-28T07:55:07.401Z,9032.00
2022-09-28T07:56:06.655Z,9140.00
2022-09-28T07:57:06.654Z,9208.00
2022-09-28T07:58:06.670Z,9312.00
2022-09-28T07:59:06.684Z,9320.00
2022-09-28T08:00:06.699Z,9276.00
2022-09-28T08:01:06.806Z,9300.00
2022-09-28T08:02:06.882Z,9604.00
2022-09-28T08:03:06.744Z,9560.00
2022-09-28T08:04:06.760Z,9460.00
2022-09-28T08:05:06.776Z,9572.00
2022-09-28T08:06:06.797Z,9860.00
2022-09-28T08:07:06.807Z,10124.00
2022-09-28T08:08:06.825Z,10332.00
2022-09-28T08:09:06.839Z,10468.00
2022-09-28T08:10:06.856Z,10624.00
2022-09-28T08:11:06.871Z,10932.00
2022-09-28T08:12:06.885Z,11052.00
2022-09-28T08:13:08.681Z,11124.00
2022-09-28T08:14:06.919Z,11340.00
2022-09-28T08:15:06.933Z,11628.00
2022-09-28T08:16:06.948Z,11924.00
2022-09-28T08:17:06.966Z,12248.00
2022-09-28T08:18:06.979Z,12716.00
2022-09-28T08:19:07.016Z,13008.00
2022-09-28T08:20:07.027Z,13584.00
2022-09-28T08:21:07.028Z,14272.00
2022-09-28T08:22:07.045Z,14840.00
2022-09-28T08:23:07.079Z,16096.00
2022-09-28T08:24:07.083Z,15208.00
2022-09-28T08:25:07.089Z,14340.00
2022-09-28T08:26:07.109Z,14016.00
2022-09-28T08:27:07.126Z,13692.00
2022-09-28T08:28:07.143Z,13232.00
2022-09-28T08:29:07.160Z,13148.00
2022-09-28T08:30:07.175Z,13420.00
2022-09-28T08:31:07.250Z,13604.00
2022-09-28T08:32:07.208Z,13968.00
2022-09-28T08:33:07.225Z,14920.00
2022-09-28T08:34:07.245Z,15600.00
2022-09-28T08:35:07.258Z,15964.00
2022-09-28T08:36:07.278Z,16296.00
2022-09-28T08:37:07.292Z,16552.00
2022-09-28T08:38:07.308Z,17024.00
2022-09-28T08:39:07.325Z,16228.00
2022-09-28T08:40:07.345Z,15904.00
2022-09-28T08:41:07.374Z,15680.00
2022-09-28T08:42:07.388Z,15740.00
2022-09-28T08:43:07.400Z,16340.00
2022-09-28T08:44:07.419Z,17056.00
2022-09-28T08:45:07.430Z,15996.00
2022-09-28T08:46:07.516Z,15132.00
2022-09-28T08:47:07.467Z,14576.00
2022-09-28T08:48:07.482Z,13752.00
2022-09-28T08:49:24.259Z,13380.00
2022-09-28T08:50:07.519Z,14632.00
2022-09-28T08:51:07.533Z,15624.00
2022-09-28T08:52:07.555Z,16432.00
2022-09-28T08:53:07.572Z,18240.00
2022-09-28T08:54:10.979Z,17280.00
2022-09-28T08:55:07.607Z,15568.00
2022-09-28T08:56:07.625Z,15852.00
2022-09-28T08:57:07.643Z,16200.00
2022-09-28T08:58:07.662Z,16632.00
2022-09-28T08:59:07.999Z,17120.00
2022-09-28T09:00:11.076Z,18336.00
2022-09-28T09:01:07.799Z,19520.00
2022-09-28T09:02:07.748Z,20448.00
2022-09-28T09:03:07.752Z,21376.00
2022-09-28T09:04:07.770Z,20928.00
2022-09-28T09:05:07.794Z,19200.00
2022-09-28T09:06:07.808Z,18304.00
2022-09-28T09:07:07.828Z,17408.00
2022-09-28T09:08:07.867Z,16388.00
2022-09-28T09:09:07.863Z,16168.00
2022-09-28T09:10:07.952Z,15788.00
2022-09-28T09:11:07.900Z,16392.00
2022-09-28T09:12:07.921Z,17088.00
2022-09-28T09:13:07.939Z,18304.00
2022-09-28T09:14:07.958Z,17216.00
2022-09-28T09:15:07.977Z,16020.00
2022-09-28T09:16:07.996Z,15200.00
2022-09-28T09:17:08.031Z,14028.00
2022-09-28T09:18:08.032Z,13804.00
2022-09-28T09:19:08.049Z,14100.00
2022-09-28T09:20:08.144Z,14504.00
2022-09-28T09:21:08.088Z,14668.00
2022-09-28T09:22:08.108Z,15096.00
2022-09-28T09:23:08.125Z,14180.00
2022-09-28T09:24:08.144Z,12772.00
2022-09-28T09:25:08.165Z,11728.00
2022-09-28T09:26:08.183Z,11016.00
2022-09-28T09:27:08.209Z,11012.00
2022-09-28T09:28:08.224Z,11276.00
2022-09-28T09:29:08.241Z,11344.00
2022-09-28T09:30:08.288Z,11568.00
2022-09-28T09:31:08.325Z,11744.00
2022-09-28T09:32:08.296Z,12232.00
2022-09-28T09:33:08.315Z,12984.00
2022-09-28T09:34:08.335Z,13108.00
2022-09-28T09:35:08.351Z,13944.00
2022-09-28T09:36:08.373Z,14396.00
2022-09-28T09:37:08.395Z,15780.00
2022-09-28T09:38:08.409Z,16460.00
2022-09-28T09:39:08.427Z,16128.00
2022-09-28T09:40:08.494Z,14928.00
2022-09-28T09:41:08.574Z,14384.00
2022-09-28T09:42:08.484Z,14464.00
2022-09-28T09:43:08.502Z,13956.00
2022-09-28T09:44:08.524Z,14872.00
2022-09-28T09:45:08.540Z,16292.00
2022-09-28T09:46:08.605Z,16284.00
2022-09-28T09:47:08.580Z,15804.00
2022-09-28T09:48:08.598Z,15320.00
2022-09-28T09:49:08.616Z,15688.00
2022-09-28T09:50:09.204Z,15908.00
2022-09-28T09:51:08.657Z,15204.00
2022-09-28T09:52:08.673Z,14128.00
2022-09-28T09:53:08.699Z,13516.00
2022-09-28T09:54:08.712Z,12888.00
2022-09-28T09:55:08.730Z,12148.00
2022-09-28T09:56:08.749Z,11708.00
2022-09-28T09:57:08.768Z,11716.00
2022-09-28T09:58:08.787Z,11780.00
2022-09-28T09:59:08.806Z,12044.00
2022-09-28T10:00:08.824Z,12480.00
2022-09-28T10:01:08.884Z,13164.00
2022-09-28T10:02:11.621Z,13744.00
2022-09-28T10:03:08.884Z,13764.00
2022-09-28T10:04:08.925Z,13728.00
2022-09-28T10:05:08.925Z,13940.00
2022-09-28T10:06:08.946Z,13984.00
2022-09-28T10:07:08.958Z,13900.00
2022-09-28T10:08:08.979Z,13692.00
2022-09-28T10:09:09.011Z,13420.00
2022-09-28T10:10:09.014Z,13136.00
2022-09-28T10:11:09.033Z,13120.00
2022-09-28T10:12:09.053Z,13484.00
2022-09-28T10:13:09.073Z,13748.00
2022-09-28T10:14:09.094Z,13520.00
2022-09-28T10:15:09.109Z,13080.00
2022-09-28T10:16:09.131Z,12408.00
2022-09-28T10:17:09.209Z,11904.00
2022-09-28T10:18:09.169Z,11528.00
2022-09-28T10:19:09.187Z,11268.00
2022-09-28T10:20:09.211Z,10872.00
2022-09-28T10:21:09.228Z,10476.00
2022-09-28T10:22:09.244Z,10264.00
2022-09-28T10:23:09.263Z,10176.00
2022-09-28T10:24:09.284Z,10256.00
2022-09-28T10:25:09.301Z,11148.00
2022-09-28T10:26:09.326Z,12452.00
2022-09-28T10:27:09.340Z,13264.00
2022-09-28T10:28:09.362Z,13372.00
2022-09-28T10:29:09.379Z,13112.00
2022-09-28T10:30:09.399Z,12472.00
2022-09-28T10:32:09.435Z,11316.00
2022-09-28T10:33:09.455Z,10708.00
2022-09-28T10:34:09.473Z,9864.00
2022-09-28T10:35:09.492Z,9356.00
2022-09-28T10:36:09.511Z,9188.00
2022-09-28T10:37:09.529Z,9176.00
2022-09-28T10:38:09.549Z,8984.00
2022-09-28T10:39:09.567Z,8392.00
2022-09-28T10:40:09.585Z,7864.00
2022-09-28T10:41:09.644Z,7756.00
2022-09-28T10:42:09.624Z,7792.00
2022-09-28T10:43:09.641Z,7788.00
2022-09-28T10:44:09.660Z,7876.00
2022-09-28T10:45:09.678Z,8008.00
2022-09-28T10:46:09.745Z,8328.00
2022-09-28T10:47:09.714Z,8640.00
2022-09-28T10:48:09.734Z,8936.00
2022-09-28T10:49:09.753Z,9224.00
2022-09-28T10:50:09.774Z,9516.00
2022-09-28T10:51:09.790Z,9780.00
2022-09-28T10:52:09.809Z,10008.00
2022-09-28T10:53:09.829Z,10144.00
2022-09-28T10:54:09.845Z,10208.00
2022-09-28T10:55:09.861Z,10232.00
2022-09-28T10:56:09.881Z,10136.00
2022-09-28T10:57:13.373Z,10128.00
2022-09-28T10:58:09.918Z,10092.00
2022-09-28T10:59:09.935Z,10372.00
2022-09-28T11:00:09.952Z,10308.00
2022-09-28T11:01:10.025Z,10124.00
2022-09-28T11:02:10.036Z,10068.00
2022-09-28T11:03:10.009Z,10312.00
2022-09-28T11:04:10.026Z,10412.00
2022-09-28T11:05:10.042Z,9808.00
2022-09-28T11:06:10.062Z,9980.00
2022-09-28T11:07:10.640Z,10072.00
2022-09-28T11:08:10.098Z,10484.00
2022-09-28T11:09:10.140Z,10068.00
2022-09-28T11:10:10.134Z,10424.00
2022-09-28T11:11:10.153Z,10448.00
2022-09-28T11:12:10.177Z,10404.00
2022-09-28T11:13:10.197Z,10364.00
2022-09-28T11:14:10.205Z,10332.00
2022-09-28T11:15:10.223Z,10332.00
2022-09-28T11:16:10.240Z,10372.00
2022-09-28T11:17:10.259Z,10436.00
2022-09-28T11:18:10.299Z,10380.00
2022-09-28T11:19:10.352Z,10580.00
2022-09-28T11:20:10.314Z,10608.00
2022-09-28T11:21:12.792Z,11092.00
2022-09-28T11:22:12.996Z,11212.00
2022-09-28T11:23:10.367Z,11396.00
2022-09-28T11:24:10.406Z,11556.00
2022-09-28T11:25:10.404Z,11768.00
2022-09-28T11:26:13.687Z,11932.00
2022-09-28T11:27:10.437Z,12092.00
2022-09-28T11:28:10.456Z,12256.00
2022-09-28T11:29:10.473Z,12408.00
2022-09-28T11:30:10.491Z,12540.00
2022-09-28T11:31:10.531Z,12656.00
2022-09-28T11:32:14.911Z,12780.00
2022-09-28T11:33:10.544Z,12884.00
2022-09-28T11:34:10.613Z,13016.00
2022-09-28T11:35:10.578Z,13108.00
2022-09-28T11:36:10.599Z,13204.00
2022-09-28T11:37:10.618Z,13280.00
2022-09-28T11:38:10.634Z,13336.00
2022-09-28T11:39:10.687Z,13396.00
2022-09-28T11:40:10.670Z,13424.00
2022-09-28T11:41:10.686Z,13440.00
2022-09-28T11:42:15.513Z,13460.00
2022-09-28T11:43:12.297Z,13456.00
2022-09-28T11:44:10.784Z,13396.00
2022-09-28T11:45:10.756Z,13356.00
2022-09-28T11:46:10.799Z,13316.00
2022-09-28T11:47:10.791Z,13276.00
2022-09-28T11:48:10.811Z,13264.00
2022-09-28T11:49:10.827Z,13288.00
2022-09-28T11:50:10.853Z,13352.00
2022-09-28T11:51:10.880Z,13372.00
2022-09-28T11:52:10.881Z,13404.00
2022-09-28T11:53:10.900Z,13464.00
2022-09-28T11:54:10.937Z,13540.00
2022-09-28T11:55:10.945Z,13612.00
2022-09-28T11:56:10.954Z,13708.00
2022-09-28T11:57:10.972Z,13812.00
2022-09-28T11:58:10.988Z,13924.00
2022-09-28T11:59:11.007Z,14056.00
2022-09-28T12:00:11.043Z,14200.00
2022-09-28T12:01:11.456Z,14316.00
2022-09-28T12:02:11.185Z,14436.00
2022-09-28T12:03:11.155Z,14532.00
2022-09-28T12:04:11.120Z,14632.00
2022-09-28T12:05:11.112Z,14672.00
2022-09-28T12:06:11.132Z,14692.00
2022-09-28T12:07:11.149Z,14708.00
2022-09-28T12:08:11.169Z,14680.00
2022-09-28T12:09:11.242Z,14604.00
2022-09-28T12:10:11.206Z,14516.00
2022-09-28T12:11:11.220Z,14424.00
2022-09-28T12:12:11.237Z,14340.00
2022-09-28T12:13:11.258Z,14260.00
2022-09-28T12:14:11.275Z,14148.00
2022-09-28T12:15:11.291Z,14048.00
2022-09-28T12:16:32.744Z,13972.00
2022-09-28T12:17:11.378Z,13864.00
2022-09-28T12:18:11.438Z,13772.00
2022-09-28T12:19:11.424Z,13684.00
2022-09-28T12:20:11.385Z,13568.00
2022-09-28T12:21:11.400Z,13460.00
2022-09-28T12:22:11.419Z,13344.00
2022-09-28T12:23:11.434Z,13240.00
2022-09-28T12:24:11.456Z,13120.00
2022-09-28T12:25:11.471Z,12988.00
2022-09-28T12:26:11.490Z,12856.00
2022-09-28T12:27:11.508Z,12708.00